createdAt,value
2023-03-06T00:08:47.780Z,9.87
2023-03-06T00:23:50.087Z,10.87
2023-03-06T00:38:52.481Z,12.03
2023-03-06T00:53:54.768Z,12.80
2023-03-06T01:08:57.350Z,13.80
2023-03-06T01:24:00.918Z,12.57
2023-03-06T01:39:03.738Z,12.60
2023-03-06T01:54:12.394Z,15.17
2023-03-06T02:09:16.097Z,15.73
2023-03-06T02:24:39.090Z,17.00
2023-03-06T02:39:46.657Z,17.17
2023-03-06T02:54:50.844Z,18.23
2023-03-06T03:09:53.246Z,20.80
2023-03-06T03:24:56.228Z,21.70
2023-03-06T03:39:59.503Z,22.13
2023-03-06T03:55:02.912Z,22.80
2023-03-06T04:10:07.755Z,21.83
2023-03-06T04:25:11.001Z,21.20
2023-03-06T04:40:19.421Z,23.40
2023-03-06T04:55:22.063Z,24.70
2023-03-06T05:10:24.645Z,23.77
2023-03-06T05:25:27.030Z,25.10
2023-03-06T05:40:29.453Z,25.03
2023-03-06T05:55:31.844Z,25.23
2023-03-06T06:10:34.158Z,24.23
2023-03-06T06:25:37.501Z,24.73
2023-03-06T06:40:39.814Z,26.33
2023-03-06T06:55:42.877Z,24.60
2023-03-06T07:10:45.321Z,27.90
2023-03-06T07:25:47.765Z,28.10
2023-03-06T07:40:51.341Z,26.00
2023-03-06T07:55:54.041Z,27.37
2023-03-06T08:10:56.416Z,25.30
2023-03-06T08:26:00.751Z,26.97
2023-03-06T08:41:03.390Z,27.70
2023-03-06T08:56:07.193Z,23.93
2023-03-06T09:11:11.884Z,27.40
2023-03-06T09:26:14.208Z,24.00
2023-03-06T09:41:26.317Z,23.07
2023-03-06T09:56:34.049Z,23.43
2023-03-06T10:11:52.695Z,22.10
2023-03-06T10:27:10.370Z,22.07
2023-03-06T10:42:13.277Z,19.73
2023-03-06T10:57:31.611Z,18.33
2023-03-06T11:12:39.344Z,16.70
2023-03-06T11:27:45.097Z,17.23
2023-03-06T11:42:54.224Z,16.07
2023-03-06T11:58:07.310Z,15.40
2023-03-06T12:13:37.075Z,14.50
2023-03-06T12:28:57.087Z,15.43
2023-03-06T12:44:25.128Z,15.40
2023-03-06T12:59:47.879Z,13.87
2023-03-06T13:14:56.721Z,15.53
2023-03-06T13:30:19.697Z,13.90
2023-03-06T13:45:29.894Z,14.47
2023-03-06T14:00:50.971Z,13.67
2023-03-06T14:15:55.036Z,17.10
2023-03-06T14:30:59.611Z,16.40
2023-03-06T14:46:08.913Z,17.03
2023-03-06T15:01:13.239Z,17.87
2023-03-06T15:16:18.450Z,16.53
2023-03-06T15:31:23.533Z,15.90
2023-03-06T15:46:25.926Z,15.30
2023-03-06T16:01:28.417Z,16.00
2023-03-06T16:16:35.559Z,15.90
2023-03-06T16:31:37.942Z,18.20
2023-03-06T16:46:42.638Z,17.03
2023-03-06T17:01:45.013Z,16.80
2023-03-06T17:16:47.477Z,14.57
2023-03-06T17:31:49.793Z,14.57
2023-03-06T17:46:52.204Z,15.97
2023-03-06T18:01:58.745Z,17.30
2023-03-06T18:17:01.087Z,18.63
2023-03-06T18:32:03.495Z,17.53
2023-03-06T18:47:06.379Z,14.53
2023-03-06T19:02:10.834Z,17.80
2023-03-06T19:17:13.139Z,16.73
2023-03-06T19:32:15.586Z,16.60
2023-03-06T19:47:18.045Z,16.63
2023-03-06T20:02:26.266Z,18.57
2023-03-06T20:17:28.612Z,17.80
2023-03-06T20:32:31.064Z,18.43
2023-03-06T20:47:33.530Z,19.60
2023-03-06T21:02:36.229Z,18.90
2023-03-06T21:17:38.833Z,19.10
2023-03-06T21:32:41.278Z,18.27
2023-03-06T21:47:43.645Z,16.00
2023-03-06T22:02:46.858Z,15.90
2023-03-06T22:17:49.444Z,14.77
2023-03-06T22:32:54.769Z,13.40
2023-03-06T22:48:09.087Z,11.70
2023-03-06T23:03:13.013Z,11.37
2023-03-06T23:18:15.617Z,10.20
2023-03-06T23:33:38.743Z,9.57
2023-03-06T23:48:42.020Z,8.83
